Fort Smith Regional Airport Fort Smith US
ICAO: KFSM
IATA: FSM
Category: Large
Scheduled Services: Yes

Elevation: 469 ft
TransAlt. 18000 ft.

Airport Communications:
RAZORBACK APP:35.357
RAZORBACK APP:120.175
ATIS:126.3
CLNC DEL:133.85
CTAF:118.3
RAZORBACK DEP:120.9
GND:121.9
JONESBORO RDO:122.2
TWR:118.3
UNICOM:122.95

KFSM Zoom In..

If you have problems with the map follow the link
https://www.worldairports.se/pages/airport.php?
ICAO=KFSM

Runways:

(A) RW 01 length 5001 ft width 150 ft
---- / hdg 16

(B) RW 07 length 8017 ft width 150 ft
ILS 111.30 / hdg 76

(C) RW 19 length 5001 ft width 150 ft
---- / hdg 196

(D) RW 25 length 8017 ft width 150 ft
ILS 111.30 / hdg 256

Location; KFSM
Day. 24 / Time. 10.53 Zulu
* Altimeter: 30.03
* Temperature: 12° c. 53.6°f.
* Wind from: 080° Speed 04 kn.
Dewpoint: 10° c.
Visibility: 10 Statute Miles.
Clouds: Overcast 2600 ft.

KFSM 241053Z 08004KT 10SM OVC026 12/10 A3003 RMK AO2 SLP170 T01220100


Wind From 080°
Speed 04 kn.

 
 
jpsmedia.com for Web Design worldairports.se 2019   terms of use